Time;durP1;ratioP1;P1;durP2;ratioP2;P2;SDS_P1;SDS_P2;PMS_P1;PMS_P2;Temp;Humidity;BMP_temperature;BMP_pressure;BME280_temperature;BME280_humidity;BME280_pressure;Samples;Min_cycle;Max_cycle;Signal;HPM_P1;HPM_P2
2022/12/09 00:00:09;;;;;;;1.50;1.40;;;20.30;56.50;;;;;;6218116;23;20178;-89
2022/12/09 00:02:42;;;;;;;1.40;1.30;;;20.20;56.40;;;;;;6217993;23;20171;-89
2022/12/09 00:05:11;;;;;;;1.37;1.10;;;20.20;56.40;;;;;;6218015;23;20385;-89
2022/12/09 00:07:49;;;;;;;;;;;;;;;;;;;;;
2022/12/09 00:10:15;;;;;;;1.23;1.10;;;20.20;56.40;;;;;;6244072;23;20362;-88
2022/12/09 00:12:47;;;;;;;1.27;1.10;;;20.20;56.40;;;;;;6218266;23;20366;-88
2022/12/09 00:15:15;;;;;;;1.17;0.93;;;20.20;56.40;;;;;;6243880;23;20116;-88
2022/12/09 00:17:48;;;;;;;1.20;1.10;;;20.20;56.40;;;;;;6243888;23;20422;-88
2022/12/09 00:20:21;;;;;;;1.40;1.10;;;20.20;56.40;;;;;;6217698;23;20409;-88
2022/12/09 00:22:50;;;;;;;1.10;1.00;;;20.20;56.40;;;;;;6217944;23;20409;-87
2022/12/09 00:25:19;;;;;;;1.03;0.87;;;20.20;56.40;;;;;;6218012;23;20373;-88
2022/12/09 00:27:47;;;;;;;1.30;1.10;;;20.20;56.40;;;;;;6217899;23;20359;-87
2022/12/09 00:30:16;;;;;;;1.50;1.40;;;20.20;56.30;;;;;;6244010;23;20402;-87
2022/12/09 00:32:44;;;;;;;1.47;1.37;;;20.20;56.30;;;;;;6217854;23;20386;-88
2022/12/09 00:35:19;;;;;;;1.30;1.00;;;20.20;56.30;;;;;;6243992;23;20359;-88
2022/12/09 00:37:44;;;;;;;1.43;1.17;;;20.20;56.30;;;;;;6217916;23;20369;-88
2022/12/09 00:40:11;;;;;;;1.60;1.20;;;20.20;56.40;;;;;;6217478;23;20473;-87
2022/12/09 00:42:57;;;;;;;2.00;1.10;;;20.10;56.30;;;;;;6244003;23;20155;-87
2022/12/09 00:45:22;;;;;;;1.50;1.17;;;20.10;56.20;;;;;;6217641;23;20366;-88
2022/12/09 00:47:51;;;;;;;1.30;1.10;;;20.10;56.30;;;;;;6218233;23;20394;-88
2022/12/09 00:50:16;;;;;;;1.30;1.20;;;20.10;56.30;;;;;;6217839;23;20139;-88
2022/12/09 00:52:42;;;;;;;2.13;1.10;;;20.10;56.30;;;;;;6217448;23;20370;-89
2022/12/09 00:55:08;;;;;;;1.57;1.30;;;20.10;56.30;;;;;;6243828;23;20151;-89
2022/12/09 00:57:36;;;;;;;1.20;1.00;;;20.10;56.30;;;;;;6218024;23;20173;-89
2022/12/09 01:00:06;;;;;;;1.20;1.10;;;20.10;56.30;;;;;;6217391;23;20444;-89
2022/12/09 01:02:37;;;;;;;1.37;1.20;;;20.10;56.30;;;;;;6217555;23;20362;-89
2022/12/09 01:05:44;;;;;;;1.07;0.90;;;20.10;56.40;;;;;;6217435;23;20397;-89
2022/12/09 01:08:11;;;;;;;1.20;1.00;;;20.10;56.40;;;;;;6184821;23;20438;-87
2022/12/09 01:10:39;;;;;;;1.33;1.10;;;20.00;56.30;;;;;;6243511;23;20590;-88
2022/12/09 01:13:05;;;;;;;1.20;1.00;;;20.00;56.40;;;;;;6217244;23;20355;-88
2022/12/09 01:15:31;;;;;;;1.30;1.00;;;20.00;56.40;;;;;;6217346;23;20442;-88
2022/12/09 01:17:57;;;;;;;1.43;1.10;;;20.00;56.40;;;;;;6217581;23;20366;-88
2022/12/09 01:20:23;;;;;;;1.23;1.13;;;20.00;56.40;;;;;;6217366;23;20420;-87
2022/12/09 01:22:54;;;;;;;1.60;1.20;;;20.00;56.40;;;;;;6217171;23;20167;-87
2022/12/09 01:25:20;;;;;;;1.53;1.03;;;20.00;56.40;;;;;;6217203;23;20163;-88
2022/12/09 01:27:46;;;;;;;1.33;1.13;;;20.00;56.50;;;;;;6217039;23;20390;-88
2022/12/09 01:30:13;;;;;;;1.07;0.90;;;19.90;56.40;;;;;;6243087;23;20135;-88
2022/12/09 01:32:40;;;;;;;1.57;1.30;;;19.90;56.40;;;;;;6243192;23;20211;-88
2022/12/09 01:35:06;;;;;;;1.53;1.20;;;19.90;56.40;;;;;;6217318;23;20354;-89
2022/12/09 01:37:33;;;;;;;1.37;1.00;;;19.90;56.40;;;;;;6217293;23;20371;-87
2022/12/09 01:39:58;;;;;;;1.30;1.03;;;19.90;56.40;;;;;;6243236;23;20402;-89
2022/12/09 01:42:25;;;;;;;1.80;1.30;;;19.90;56.50;;;;;;6216942;23;20385;-89
2022/12/09 01:45:23;;;;;;;1.60;1.20;;;19.90;56.50;;;;;;6243036;23;20154;-89
2022/12/09 01:48:12;;;;;;;1.33;1.17;;;19.90;56.50;;;;;;6217096;23;20378;-89
2022/12/09 01:50:43;;;;;;;1.50;0.93;;;19.90;56.50;;;;;;6216525;23;20371;-89
2022/12/09 01:53:09;;;;;;;1.30;1.10;;;19.80;56.40;;;;;;6216932;23;20377;-89
2022/12/09 01:55:36;;;;;;;1.13;0.93;;;19.80;56.50;;;;;;6217140;23;20374;-89
2022/12/09 01:58:04;;;;;;;1.40;1.20;;;19.80;56.50;;;;;;6217357;23;20367;-89
2022/12/09 02:00:30;;;;;;;1.23;1.03;;;19.80;56.50;;;;;;6243195;23;20462;-88
2022/12/09 02:02:56;;;;;;;1.20;1.10;;;19.80;56.50;;;;;;6216709;23;20385;-88
2022/12/09 02:05:23;;;;;;;1.20;1.00;;;19.80;56.50;;;;;;6242646;23;20343;-87
2022/12/09 02:07:50;;;;;;;1.20;0.93;;;19.70;56.40;;;;;;6242573;23;20382;-87
2022/12/09 02:10:17;;;;;;;1.30;1.10;;;19.70;56.50;;;;;;6217009;23;20377;-88
2022/12/09 02:13:15;;;;;;;1.50;1.00;;;19.70;56.50;;;;;;6216786;23;20462;-87
2022/12/09 02:15:51;;;;;;;1.33;0.90;;;19.70;56.50;;;;;;6216578;23;20367;-87
2022/12/09 02:18:40;;;;;;;1.27;1.03;;;19.70;56.50;;;;;;6216804;23;20370;-87
2022/12/09 02:21:18;;;;;;;1.30;1.10;;;19.70;56.50;;;;;;6157514;23;20432;-88
2022/12/09 02:24:03;;;;;;;1.00;0.90;;;19.70;56.50;;;;;;6242790;23;20366;-87
2022/12/09 02:26:39;;;;;;;1.50;1.20;;;19.60;56.50;;;;;;6242702;23;20365;-87
2022/12/09 02:29:30;;;;;;;1.43;1.13;;;19.60;56.50;;;;;;6216525;23;20373;-87
2022/12/09 02:32:28;;;;;;;1.47;1.00;;;19.60;56.50;;;;;;6216768;23;20401;-88
2022/12/09 02:35:11;;;;;;;1.10;0.90;;;19.60;56.50;;;;;;6242777;23;20381;-87
2022/12/09 02:37:55;;;;;;;1.13;1.00;;;19.60;56.60;;;;;;6242794;23;20351;-88
2022/12/09 02:40:37;;;;;;;1.30;1.10;;;19.60;56.60;;;;;;6216598;23;20417;-88
2022/12/09 02:43:06;;;;;;;1.40;1.00;;;19.60;56.60;;;;;;6216566;23;20395;-87
2022/12/09 02:45:32;;;;;;;1.43;1.03;;;19.60;56.60;;;;;;6216628;23;20376;-88
2022/12/09 02:48:02;;;;;;;1.40;1.10;;;19.60;56.60;;;;;;6216607;23;20374;-88
2022/12/09 02:50:33;;;;;;;1.30;1.00;;;19.60;56.60;;;;;;6216690;23;20374;-88
2022/12/09 02:53:04;;;;;;;1.40;1.10;;;19.60;56.60;;;;;;6216605;23;20370;-88
2022/12/09 02:55:32;;;;;;;1.30;1.20;;;19.60;56.60;;;;;;6242401;23;20426;-88
2022/12/09 02:58:00;;;;;;;1.57;1.30;;;19.60;56.60;;;;;;6242904;23;20363;-89
2022/12/09 03:00:26;;;;;;;1.30;1.00;;;19.60;56.60;;;;;;6242707;23;20406;-89
2022/12/09 03:02:59;;;;;;;1.70;1.30;;;19.60;56.60;;;;;;6217664;23;20374;-89
2022/12/09 03:05:24;;;;;;;1.10;1.00;;;19.60;56.60;;;;;;6218949;23;20366;-89
2022/12/09 03:08:12;;;;;;;1.30;1.20;;;19.60;56.60;;;;;;6218813;23;20385;-88
2022/12/09 03:11:00;;;;;;;1.10;1.00;;;19.60;56.60;;;;;;6244630;23;20135;-88
2022/12/09 03:13:45;;;;;;;1.57;1.10;;;19.60;56.60;;;;;;6218844;23;20441;-88
2022/12/09 03:16:23;;;;;;;1.10;1.00;;;19.60;56.60;;;;;;6218201;23;20382;-88
2022/12/09 03:18:57;;;;;;;1.30;1.17;;;19.60;56.60;;;;;;6218525;23;20460;-88
2022/12/09 03:21:26;;;;;;;1.40;1.10;;;19.60;56.60;;;;;;6244496;23;20381;-88
2022/12/09 03:23:55;;;;;;;1.10;1.00;;;19.50;56.50;;;;;;6218659;23;20374;-88
2022/12/09 03:26:24;;;;;;;1.00;0.90;;;19.50;56.50;;;;;;6244099;23;20377;-89
2022/12/09 03:28:52;;;;;;;1.10;0.90;;;19.50;56.50;;;;;;6218196;23;20397;-89
2022/12/09 03:31:25;;;;;;;1.30;1.00;;;19.50;56.50;;;;;;6218167;23;20378;-88
2022/12/09 03:33:56;;;;;;;1.23;0.87;;;19.50;56.50;;;;;;6217862;23;20359;-89
2022/12/09 03:36:25;;;;;;;1.07;0.93;;;19.50;56.50;;;;;;6218000;23;20421;-89
2022/12/09 03:38:56;;;;;;;1.87;1.00;;;19.50;56.50;;;;;;6218009;23;20376;-89
2022/12/09 03:41:31;;;;;;;1.43;1.00;;;19.50;56.40;;;;;;6218015;23;20406;-88
2022/12/09 03:44:12;;;;;;;1.50;1.40;;;19.50;56.50;;;;;;6218571;23;20433;-88
2022/12/09 03:46:38;;;;;;;1.00;0.83;;;19.50;56.50;;;;;;6244216;23;20366;-88
2022/12/09 03:49:05;;;;;;;1.10;0.90;;;19.50;56.50;;;;;;6244068;23;20350;-88
2022/12/09 03:51:40;;;;;;;1.63;1.10;;;19.50;56.50;;;;;;6243937;23;20373;-88
2022/12/09 03:54:23;;;;;;;1.30;1.00;;;19.50;56.50;;;;;;6217744;23;20379;-88
2022/12/09 03:56:53;;;;;;;1.10;0.90;;;19.50;56.50;;;;;;6243817;23;20385;-88
2022/12/09 03:59:23;;;;;;;1.30;1.00;;;19.40;56.40;;;;;;6217623;23;20374;-89
2022/12/09 04:01:50;;;;;;;1.20;1.00;;;19.40;56.40;;;;;;6217665;23;20408;-88
2022/12/09 04:04:16;;;;;;;1.13;1.03;;;19.40;56.40;;;;;;6218062;23;20367;-89
2022/12/09 04:06:43;;;;;;;1.40;1.00;;;19.40;56.40;;;;;;6217729;23;20385;-88
2022/12/09 04:09:15;;;;;;;1.33;1.10;;;19.40;56.50;;;;;;6243539;23;20355;-89
2022/12/09 04:11:48;;;;;;;1.40;1.20;;;19.40;56.50;;;;;;6243586;23;20358;-88
2022/12/09 04:14:16;;;;;;;1.10;0.97;;;19.40;56.50;;;;;;6217359;23;20366;-88
2022/12/09 04:16:47;;;;;;;1.23;1.00;;;19.40;56.50;;;;;;6217675;23;20381;-89
2022/12/09 04:19:23;;;;;;;1.10;1.00;;;19.40;56.50;;;;;;6217731;23;20393;-88
2022/12/09 04:21:49;;;;;;;1.57;1.17;;;19.40;56.50;;;;;;6243302;23;20437;-88
2022/12/09 04:24:17;;;;;;;1.20;1.00;;;19.40;56.50;;;;;;6217634;23;20374;-89
2022/12/09 04:26:45;;;;;;;1.40;1.30;;;19.40;56.50;;;;;;6243880;23;20132;-89
2022/12/09 04:29:11;;;;;;;1.10;0.90;;;19.40;56.50;;;;;;6217265;23;20358;-89
2022/12/09 04:31:40;;;;;;;1.17;0.93;;;19.40;56.50;;;;;;6217479;23;20516;-89
2022/12/09 04:34:05;;;;;;;1.37;1.07;;;19.40;56.50;;;;;;6243449;23;20362;-88
2022/12/09 04:36:31;;;;;;;1.13;1.03;;;19.40;56.40;;;;;;6243562;23;20359;-89
2022/12/09 04:39:18;;;;;;;1.07;0.80;;;19.40;56.40;;;;;;6217416;23;20439;-88
2022/12/09 04:41:47;;;;;;;1.30;0.80;;;19.40;56.40;;;;;;6217371;23;20142;-89
2022/12/09 04:44:26;;;;;;;1.47;1.20;;;19.40;56.40;;;;;;6217064;23;20365;-88
2022/12/09 04:46:55;;;;;;;1.03;0.93;;;19.50;56.40;;;;;;6217306;23;20347;-89
2022/12/09 04:49:23;;;;;;;1.10;1.00;;;19.50;56.40;;;;;;6217140;23;20386;-88
2022/12/09 04:51:49;;;;;;;1.00;0.70;;;19.50;56.40;;;;;;6243585;23;20363;-88
2022/12/09 04:54:35;;;;;;;0.97;0.80;;;19.50;56.40;;;;;;6217293;23;20454;-88
2022/12/09 04:57:10;;;;;;;1.20;0.90;;;19.50;56.40;;;;;;6196983;23;20143;-88
2022/12/09 04:59:43;;;;;;;1.07;0.90;;;19.50;56.40;;;;;;6216969;23;20414;-89
2022/12/09 05:05:16;;;;;;;1.20;0.80;;;19.50;56.40;;;;;;6222589;23;20381;-89
2022/12/09 05:07:45;;;;;;;1.10;1.00;;;19.50;56.40;;;;;;6217110;23;20382;-89
2022/12/09 05:10:32;;;;;;;1.00;0.80;;;19.50;56.40;;;;;;6243293;23;20347;-89
2022/12/09 05:13:07;;;;;;;1.13;1.03;;;19.50;56.40;;;;;;6217338;23;20426;-89
2022/12/09 05:15:38;;;;;;;1.20;1.00;;;19.50;56.40;;;;;;6217142;23;20370;-89
2022/12/09 05:18:36;;;;;;;1.30;1.10;;;19.50;56.40;;;;;;6220043;23;20418;-87
2022/12/09 05:21:33;;;;;;;1.10;0.97;;;19.50;56.40;;;;;;6210807;23;20553;-87
2022/12/09 05:24:01;;;;;;;1.43;0.93;;;19.50;56.40;;;;;;6234017;23;20385;-88
2022/12/09 05:26:27;;;;;;;1.40;1.10;;;19.50;56.40;;;;;;6243163;23;20346;-87
2022/12/09 05:29:33;;;;;;;;;;;;;;;;;;;;;
2022/12/09 05:32:02;;;;;;;1.33;1.07;;;19.50;56.40;;;;;;6242797;23;20366;-87
2022/12/09 05:34:30;;;;;;;1.13;0.80;;;19.50;56.40;;;;;;6217150;23;20370;-89
2022/12/09 05:36:56;;;;;;;1.10;0.80;;;19.50;56.40;;;;;;6242840;23;20358;-88
2022/12/09 05:39:25;;;;;;;1.00;0.80;;;19.50;56.30;;;;;;6216532;23;20359;-89
2022/12/09 05:41:51;;;;;;;1.00;0.90;;;19.50;56.40;;;;;;6216669;23;20155;-88
2022/12/09 05:44:16;;;;;;;1.20;1.07;;;19.50;56.40;;;;;;6217052;23;20378;-88
2022/12/09 05:46:42;;;;;;;1.00;0.80;;;19.50;56.30;;;;;;6217046;23;20143;-88
2022/12/09 05:49:08;;;;;;;1.10;1.00;;;19.50;56.40;;;;;;6242307;23;20178;-88
2022/12/09 05:51:34;;;;;;;1.10;0.90;;;19.60;56.40;;;;;;6216951;23;20375;-88
2022/12/09 05:54:11;;;;;;;1.10;0.90;;;19.50;56.30;;;;;;6216860;23;20434;-89
2022/12/09 05:56:37;;;;;;;1.10;0.90;;;19.50;56.30;;;;;;6216838;23;20154;-89
2022/12/09 05:59:06;;;;;;;1.20;1.00;;;19.50;56.30;;;;;;6216888;23;20370;-89
2022/12/09 06:01:34;;;;;;;1.20;1.10;;;19.50;56.30;;;;;;6216325;23;20146;-89
2022/12/09 06:04:02;;;;;;;1.10;0.90;;;19.50;56.30;;;;;;6216525;23;20347;-88
2022/12/09 06:06:34;;;;;;;1.00;0.80;;;19.50;56.30;;;;;;6216534;23;20369;-88
2022/12/09 06:09:01;;;;;;;1.23;1.00;;;19.50;56.30;;;;;;6216180;23;20367;-88
2022/12/09 06:11:32;;;;;;;0.90;0.80;;;19.50;56.30;;;;;;6216867;23;20369;-89
2022/12/09 06:13:58;;;;;;;1.30;1.10;;;19.50;56.30;;;;;;6216829;23;20375;-88
2022/12/09 06:16:29;;;;;;;1.20;1.00;;;19.50;56.30;;;;;;6242581;23;20347;-88
2022/12/09 06:19:00;;;;;;;0.87;0.73;;;19.50;56.30;;;;;;6216558;23;20139;-88
2022/12/09 06:21:26;;;;;;;1.00;0.90;;;19.50;56.30;;;;;;6242438;23;20409;-88
2022/12/09 06:23:52;;;;;;;1.00;0.87;;;19.50;56.30;;;;;;6216366;23;20414;-87
2022/12/09 06:26:23;;;;;;;1.03;0.90;;;19.50;56.30;;;;;;6216737;23;20139;-87
2022/12/09 06:28:58;;;;;;;1.00;0.80;;;19.50;56.30;;;;;;6242987;23;20342;-88
2022/12/09 06:31:43;;;;;;;1.10;1.00;;;19.50;56.30;;;;;;6242640;23;20361;-87
2022/12/09 06:34:17;;;;;;;1.30;1.07;;;19.40;56.20;;;;;;6216955;23;20374;-87
2022/12/09 06:36:45;;;;;;;1.10;1.00;;;19.50;56.30;;;;;;6217042;23;20398;-87
2022/12/09 06:39:21;;;;;;;1.30;1.10;;;19.40;56.20;;;;;;6216540;23;20374;-87
2022/12/09 06:41:49;;;;;;;1.03;0.83;;;19.50;56.30;;;;;;6216803;23;20374;-86
2022/12/09 06:44:18;;;;;;;1.10;0.90;;;19.40;56.20;;;;;;6216914;23;20369;-88
2022/12/09 06:46:46;;;;;;;1.00;0.83;;;19.50;56.30;;;;;;6216943;23;20375;-88
2022/12/09 06:52:53;;;;;;;0.90;0.80;;;19.50;56.30;;;;;;6054380;23;20406;-88
2022/12/09 06:55:32;;;;;;;1.00;0.90;;;19.50;56.40;;;;;;6069240;23;20450;-89
2022/12/09 06:58:05;;;;;;;1.20;0.90;;;19.60;56.40;;;;;;6069530;23;20391;-87
2022/12/09 07:00:33;;;;;;;1.10;0.90;;;19.60;56.40;;;;;;6069264;23;20450;-89
2022/12/09 07:03:13;;;;;;;1.10;1.00;;;19.60;56.40;;;;;;6069270;23;20387;-88
2022/12/09 07:05:39;;;;;;;1.20;1.00;;;19.60;56.40;;;;;;6069356;23;20374;-88
2022/12/09 07:15:58;;;;;;;1.00;0.90;;;19.70;56.40;;;;;;5936489;24;20378;-87
2022/12/09 07:18:46;;;;;;;;;;;;;;;;;;;;;
2022/12/09 07:21:19;;;;;;;1.50;1.30;;;19.70;56.40;;;;;;5979437;24;20433;-88
2022/12/09 07:23:54;;;;;;;1.10;0.90;;;19.70;56.40;;;;;;5934633;24;20524;-88
2022/12/09 07:26:34;;;;;;;1.10;0.90;;;19.80;56.40;;;;;;5980015;24;20373;-88
2022/12/09 07:29:17;;;;;;;1.40;1.10;;;19.80;56.40;;;;;;6029255;23;20378;-88
2022/12/09 07:31:51;;;;;;;0.93;0.70;;;19.80;56.40;;;;;;6093651;23;20439;-88
2022/12/09 07:34:24;;;;;;;1.20;1.10;;;19.80;56.30;;;;;;6092433;23;20375;-87
2022/12/09 07:36:50;;;;;;;1.10;1.00;;;19.80;56.30;;;;;;6092953;23;20391;-88
2022/12/09 07:39:17;;;;;;;1.20;1.00;;;19.90;57.00;;;;;;6068898;23;20375;-89
2022/12/09 07:41:52;;;;;;;1.40;1.00;;;19.80;56.30;;;;;;6093002;23;20143;-88
2022/12/09 07:44:21;;;;;;;1.07;0.90;;;19.80;56.30;;;;;;6092829;23;20376;-88
2022/12/09 07:47:07;;;;;;;0.90;0.80;;;19.80;56.20;;;;;;6092833;23;20399;-89
2022/12/09 07:49:53;;;;;;;1.00;0.80;;;19.90;56.30;;;;;;6242878;23;20420;-89
2022/12/09 07:52:48;;;;;;;1.40;0.90;;;19.90;56.30;;;;;;6223456;23;20382;-89
2022/12/09 07:55:19;;;;;;;0.90;0.80;;;19.90;56.30;;;;;;6218105;23;20354;-87
2022/12/09 07:57:51;;;;;;;1.00;0.90;;;19.90;56.30;;;;;;6217790;23;20354;-88
2022/12/09 08:00:27;;;;;;;0.93;0.70;;;19.90;56.30;;;;;;6218158;23;20394;-88
2022/12/09 08:02:53;;;;;;;1.00;0.90;;;19.90;56.30;;;;;;6218174;23;20370;-88
2022/12/09 08:05:51;;;;;;;1.10;0.83;;;19.90;56.30;;;;;;6217944;23;20430;-88
2022/12/09 08:16:19;;;;;;;0.97;0.80;;;19.90;56.30;;;;;;6032361;23;20387;-89
2022/12/09 08:27:14;;;;;;;0.90;0.70;;;19.80;56.30;;;;;;6242451;22;20437;-88
2022/12/09 08:29:51;;;;;;;1.20;0.97;;;19.80;56.30;;;;;;6243662;23;20423;-88
2022/12/09 08:32:17;;;;;;;1.23;1.00;;;19.80;56.30;;;;;;6218181;23;20413;-88
2022/12/09 08:34:55;;;;;;;1.00;0.90;;;19.80;56.30;;;;;;6217382;23;20410;-88
2022/12/09 08:37:42;;;;;;;1.00;0.80;;;19.80;56.30;;;;;;6217741;23;20370;-88
2022/12/09 08:40:12;;;;;;;1.10;0.80;;;19.80;56.20;;;;;;6215742;23;20429;-88
2022/12/09 08:42:40;;;;;;;1.20;0.83;;;19.80;56.20;;;;;;6217665;23;20386;-88
2022/12/09 08:45:12;;;;;;;1.13;1.03;;;19.80;56.20;;;;;;6217464;23;20400;-88
2022/12/09 08:48:03;;;;;;;1.50;1.10;;;19.80;56.20;;;;;;6243669;23;20373;-89
2022/12/09 08:50:43;;;;;;;2.97;1.87;;;19.80;56.20;;;;;;6242428;23;20381;-88
2022/12/09 08:53:28;;;;;;;2.43;1.77;;;19.80;56.30;;;;;;6217655;23;20362;-88
2022/12/09 09:00:02;;;;;;;2.10;1.70;;;19.90;56.40;;;;;;6123040;23;20385;-88
2022/12/09 09:03:07;;;;;;;2.03;1.50;;;19.90;56.40;;;;;;6123326;23;20363;-89
2022/12/09 09:05:46;;;;;;;2.30;1.30;;;20.00;56.50;;;;;;6240966;23;20446;-88
2022/12/09 09:08:21;;;;;;;2.13;1.33;;;19.90;56.40;;;;;;6243022;23;20374;-89
2022/12/09 09:10:47;;;;;;;2.50;1.80;;;20.00;56.50;;;;;;6217414;23;20369;-89
2022/12/09 09:13:17;;;;;;;2.63;1.73;;;20.00;56.50;;;;;;6242340;23;20393;-88
2022/12/09 09:15:43;;;;;;;2.13;1.70;;;20.00;56.40;;;;;;6217476;23;20385;-89
2022/12/09 09:18:15;;;;;;;3.20;1.73;;;20.00;56.40;;;;;;6217564;23;20382;-89
2022/12/09 09:31:46;;;;;;;;;;;;;;;;;;;;;
2022/12/09 09:34:44;;;;;;;2.07;1.63;;;20.00;56.40;;;;;;6087145;23;20381;-89
2022/12/09 09:40:21;;;;;;;1.97;1.60;;;20.00;56.40;;;;;;6089930;23;20522;-88
2022/12/09 09:50:08;;;;;;;1.87;1.60;;;20.00;56.30;;;;;;6078685;23;20382;-90
2022/12/09 09:52:45;;;;;;;2.03;1.83;;;20.00;56.30;;;;;;6069848;23;20403;-88
2022/12/09 09:55:55;;;;;;;2.47;1.97;;;20.00;56.30;;;;;;6069539;23;20383;-89
2022/12/09 10:05:44;;;;;;;5.03;3.27;;;20.10;56.30;;;;;;5940152;24;20375;-88
2022/12/09 10:12:42;;;;;;;5.27;4.50;;;20.00;56.00;;;;;;5897311;24;20383;-89
2022/12/09 10:16:09;;;;;;;5.63;4.67;;;20.00;55.80;;;;;;5857157;24;20367;-88
2022/12/09 10:21:33;;;;;;;5.43;4.87;;;20.00;55.70;;;;;;5843761;24;20460;-89
2022/12/09 10:32:13;;;;;;;;;;;;;;;;;;;;;
2022/12/09 10:45:54;;;;;;;5.50;4.47;;;20.00;55.10;;;;;;5924411;24;20409;-88
2022/12/09 10:49:04;;;;;;;4.80;4.30;;;20.00;55.00;;;;;;5839036;24;20391;-90
2022/12/09 11:07:20;;;;;;;;;;;;;;;;;;;;;
2022/12/09 11:10:44;;;;;;;5.90;3.83;;;20.10;55.10;;;;;;5803287;24;20420;-90
2022/12/09 11:13:51;;;;;;;5.53;4.57;;;20.10;55.10;;;;;;5816818;24;20410;-90
2022/12/09 11:25:29;;;;;;;;;;;;;;;;;;;;;
2022/12/09 11:32:08;;;;;;;14.03;5.87;;;20.10;55.10;;;;;;5814353;24;20368;-91
2022/12/09 11:53:59;;;;;;;;;;;;;;;;;;;;;
2022/12/09 12:39:43;;;;;;;14.37;6.73;;;20.00;55.40;;;;;;5765927;25;20388;-91
2022/12/09 12:51:14;;;;;;;;;;;;;;;;;;;;;
2022/12/09 13:08:36;;;;;;;;;;;;;;;;;;;;;
2022/12/09 13:11:38;;;;;;;11.70;6.23;;;20.10;55.70;;;;;;5776958;24;20397;-90
2022/12/09 13:28:37;;;;;;;;;;;;;;;;;;;;;
2022/12/09 13:31:45;;;;;;;;;;;;;;;;;;;;;
2022/12/09 13:34:55;;;;;;;;;;;;;;;;;;;;;
2022/12/09 13:38:35;;;;;;;12.03;7.23;;;20.20;55.70;;;;;;5846055;24;20383;-89
2022/12/09 13:45:25;;;;;;;;;;;;;;;;;;;;;
2022/12/09 13:48:16;;;;;;;15.73;6.63;;;20.20;55.60;;;;;;5803388;24;20600;-89
2022/12/09 13:54:08;;;;;;;;;;;;;;;;;;;;;
2022/12/09 13:57:54;;;;;;;;;;;;;;;;;;;;;
2022/12/09 14:01:09;;;;;;;;;;;;;;;;;;;;;
2022/12/09 14:04:17;;;;;;;12.53;6.43;;;20.20;55.60;;;;;;6103383;23;20377;-89
2022/12/09 14:10:51;;;;;;;9.23;4.90;;;20.20;55.50;;;;;;6035617;23;20380;-89
2022/12/09 14:17:05;;;;;;;9.17;5.30;;;20.20;55.50;;;;;;5942032;24;20367;-91
2022/12/09 14:19:34;;;;;;;16.10;6.63;;;20.20;55.50;;;;;;5952000;23;20401;-90
2022/12/09 14:22:39;;;;;;;12.00;5.47;;;20.20;55.50;;;;;;5951976;24;20387;-90
2022/12/09 14:26:16;;;;;;;;;;;;;;;;;;;;;
2022/12/09 14:57:47;;;;;;;10.73;4.97;;;20.20;55.60;;;;;;5836718;24;20419;-90
2022/12/09 15:01:28;;;;;;;;;;;;;;;;;;;;;
2022/12/09 15:04:58;;;;;;;;;;;;;;;;;;;;;
2022/12/09 16:20:38;;;;;;;7.13;4.30;;;20.20;55.50;;;;;;6239206;22;20468;-89
2022/12/09 16:37:36;;;;;;;8.20;4.13;;;20.20;55.60;;;;;;6027120;23;20411;-89
2022/12/09 16:51:18;;;;;;;;;;;;;;;;;;;;;
2022/12/09 18:42:35;;;;;;;;;;;;;;;;;;;;;
2022/12/09 19:04:05;;;;;;;;;;;;;;;;;;;;;
2022/12/09 19:07:42;;;;;;;4.60;3.07;;;20.10;55.60;;;;;;5875108;24;20362;-89
2022/12/09 19:11:20;;;;;;;;;;;;;;;;;;;;;
2022/12/09 19:17:29;;;;;;;;;;;;;;;;;;;;;
2022/12/09 19:20:55;;;;;;;4.83;3.00;;;20.10;55.60;;;;;;5663580;25;20436;-89
2022/12/09 19:34:45;;;;;;;;;;;;;;;;;;;;;
2022/12/09 19:55:37;;;;;;;8.90;3.30;;;20.20;55.70;;;;;;5718746;24;20403;-88
2022/12/09 19:58:44;;;;;;;5.47;3.80;;;20.10;55.70;;;;;;5722488;24;20402;-88
2022/12/09 20:24:00;;;;;;;;;;;;;;;;;;;;;
2022/12/09 20:30:03;;;;;;;4.80;3.10;;;20.00;55.70;;;;;;5782703;24;20440;-88
2022/12/09 20:33:14;;;;;;;4.97;3.13;;;20.10;55.70;;;;;;5793386;24;20381;-88
2022/12/09 20:35:57;;;;;;;;;;;;;;;;;;;;;
2022/12/09 20:38:39;;;;;;;;;;;;;;;;;;;;;
2022/12/09 20:45:30;;;;;;;;;;;;;;;;;;;;;
2022/12/09 20:48:55;;;;;;;;;;;;;;;;;;;;;
2022/12/09 20:59:00;;;;;;;;;;;;;;;;;;;;;
2022/12/09 21:02:32;;;;;;;;;;;;;;;;;;;;;
2022/12/09 21:09:30;;;;;;;;;;;;;;;;;;;;;
2022/12/09 23:38:17;;;;;;;;;;;;;;;;;;;;;
2022/12/09 23:41:29;;;;;;;;;;;;;;;;;;;;;
2022/12/09 23:44:34;;;;;;;;;;;;;;;;;;;;;
2022/12/09 23:57:27;;;;;;;3.40;3.10;;;19.90;55.20;;;;;;6138529;23;20410;-89
